Time;durP1;ratioP1;P1;durP2;ratioP2;P2;SDS_P1;SDS_P2;PMS_P1;PMS_P2;Temp;Humidity;BMP_temperature;BMP_pressure;BME280_temperature;BME280_humidity;BME280_pressure;Samples;Min_cycle;Max_cycle;Signal;HPM_P1;HPM_P2
2023/01/02 00:00:57;;;;;;;20.08;9.07;;;10.80;99.90;;;;;;5050658;28;20488;-63
2023/01/02 00:03:25;;;;;;;16.98;9.07;;;10.80;99.90;;;;;;5050324;28;20103;-61
2023/01/02 00:05:52;;;;;;;15.68;8.77;;;10.80;99.90;;;;;;5051281;28;20049;-62
2023/01/02 00:08:19;;;;;;;13.90;8.77;;;10.80;99.90;;;;;;5050555;28;20079;-62
2023/01/02 00:10:46;;;;;;;13.27;8.55;;;10.80;99.90;;;;;;5046650;28;20464;-59
2023/01/02 00:13:13;;;;;;;15.80;8.88;;;10.80;99.90;;;;;;5046886;28;20548;-56
2023/01/02 00:15:39;;;;;;;16.10;8.95;;;10.80;99.90;;;;;;5052130;28;20045;-63
2023/01/02 00:18:06;;;;;;;17.17;8.98;;;10.80;99.90;;;;;;5049131;28;20081;-65
2023/01/02 00:20:34;;;;;;;20.27;10.45;;;10.80;99.90;;;;;;5050156;28;20084;-64
2023/01/02 00:23:01;;;;;;;19.52;10.60;;;10.80;99.90;;;;;;5054900;28;20088;-63
2023/01/02 00:25:28;;;;;;;20.15;11.38;;;10.80;99.90;;;;;;5054100;28;20092;-67
2023/01/02 00:27:55;;;;;;;21.83;12.10;;;10.90;99.90;;;;;;5058006;28;20053;-64
2023/01/02 00:30:22;;;;;;;22.55;11.68;;;10.90;99.90;;;;;;5058398;28;20084;-63
2023/01/02 00:32:48;;;;;;;25.85;12.13;;;10.90;99.90;;;;;;5053902;28;20083;-56
2023/01/02 00:35:15;;;;;;;21.77;12.63;;;10.90;99.90;;;;;;5054385;28;20052;-64
2023/01/02 00:37:43;;;;;;;23.15;12.82;;;10.90;99.90;;;;;;5055269;28;20564;-62
2023/01/02 00:40:12;;;;;;;26.40;12.48;;;10.90;99.90;;;;;;5055331;28;20081;-52
2023/01/02 00:42:39;;;;;;;23.13;13.13;;;10.90;99.90;;;;;;5050423;28;20073;-67
2023/01/02 00:45:07;;;;;;;26.35;14.73;;;10.90;99.90;;;;;;5057488;28;20180;-63
2023/01/02 00:47:34;;;;;;;27.42;14.35;;;10.90;99.90;;;;;;5053117;28;20053;-62
2023/01/02 00:50:00;;;;;;;25.42;14.57;;;10.90;99.90;;;;;;5054489;28;20476;-62
2023/01/02 00:52:27;;;;;;;28.50;15.88;;;10.90;99.90;;;;;;5054335;28;20142;-62
2023/01/02 00:54:55;;;;;;;30.75;16.48;;;10.90;99.90;;;;;;5055353;28;20071;-62
2023/01/02 00:57:22;;;;;;;30.90;16.38;;;10.90;99.90;;;;;;5054443;28;20101;-60
2023/01/02 00:59:49;;;;;;;29.95;16.23;;;11.00;99.90;;;;;;5055001;28;20142;-50
2023/01/02 01:02:16;;;;;;;33.10;17.50;;;10.90;99.90;;;;;;5057741;28;20064;-64
2023/01/02 01:04:42;;;;;;;33.35;17.38;;;10.90;99.90;;;;;;5057761;28;20088;-63
2023/01/02 01:07:09;;;;;;;34.25;16.33;;;10.90;99.90;;;;;;5057802;28;20045;-62
2023/01/02 01:09:36;;;;;;;29.08;16.65;;;10.90;99.90;;;;;;5056220;28;20084;-64
2023/01/02 01:12:05;;;;;;;36.10;17.77;;;10.90;99.90;;;;;;5054137;28;20049;-58
2023/01/02 01:14:31;;;;;;;32.55;17.33;;;11.00;99.90;;;;;;5057677;28;20413;-62
2023/01/02 01:16:58;;;;;;;30.17;16.60;;;11.00;99.90;;;;;;5057070;28;20106;-66
2023/01/02 01:19:28;;;;;;;35.20;16.77;;;11.00;99.90;;;;;;5056930;28;20106;-68
2023/01/02 01:21:54;;;;;;;33.78;17.70;;;10.90;99.90;;;;;;5057520;28;20076;-62
2023/01/02 01:24:21;;;;;;;33.70;16.23;;;11.00;99.90;;;;;;5052617;28;20441;-64
2023/01/02 01:26:48;;;;;;;31.45;15.20;;;11.00;99.90;;;;;;5060185;28;20092;-61
2023/01/02 01:29:16;;;;;;;29.92;15.32;;;11.00;99.90;;;;;;5059835;28;20056;-63
2023/01/02 01:31:43;;;;;;;32.33;16.25;;;11.00;99.90;;;;;;5057909;28;20489;-66
2023/01/02 01:34:11;;;;;;;26.90;14.98;;;11.00;99.90;;;;;;5057839;28;20049;-64
2023/01/02 01:36:38;;;;;;;26.58;13.60;;;11.00;99.90;;;;;;5057481;28;20077;-65
2023/01/02 01:39:05;;;;;;;31.20;14.52;;;11.00;99.90;;;;;;5062121;28;20480;-60
2023/01/02 01:41:31;;;;;;;26.98;14.38;;;11.00;99.90;;;;;;5059995;28;20052;-66
2023/01/02 01:43:59;;;;;;;24.48;12.82;;;11.10;99.90;;;;;;5061612;28;20071;-66
2023/01/02 01:46:29;;;;;;;26.50;14.52;;;11.00;99.90;;;;;;5059486;28;20052;-66
2023/01/02 01:49:00;;;;;;;21.55;13.00;;;11.10;99.90;;;;;;5059082;28;20045;-62
2023/01/02 01:51:26;;;;;;;24.93;12.87;;;11.10;99.90;;;;;;5062656;28;20092;-57
2023/01/02 01:53:55;;;;;;;25.88;13.18;;;11.10;99.90;;;;;;5059886;28;20053;-68
2023/01/02 01:56:22;;;;;;;26.80;12.50;;;11.10;99.90;;;;;;5061144;28;20405;-64
2023/01/02 01:58:49;;;;;;;27.17;12.93;;;11.10;99.90;;;;;;5050399;28;20053;-65
2023/01/02 02:01:16;;;;;;;23.83;13.32;;;11.10;99.90;;;;;;5058119;28;20053;-61
2023/01/02 02:03:46;;;;;;;28.13;12.98;;;11.10;99.90;;;;;;5056928;28;20511;-65
2023/01/02 02:06:12;;;;;;;26.90;12.15;;;11.10;99.90;;;;;;5040305;28;20049;-66
2023/01/02 02:08:41;;;;;;;27.45;12.65;;;11.20;99.90;;;;;;5055735;28;20077;-64
2023/01/02 02:11:08;;;;;;;27.88;12.25;;;11.10;99.90;;;;;;5058295;28;20509;-67
2023/01/02 02:13:35;;;;;;;21.35;11.57;;;11.10;99.90;;;;;;5057380;28;20041;-71
2023/01/02 02:16:08;;;;;;;27.92;12.52;;;11.10;99.90;;;;;;5058776;28;20087;-67
2023/01/02 02:18:49;;;;;;;23.92;12.52;;;11.20;99.90;;;;;;5057595;28;20041;-65
2023/01/02 02:21:28;;;;;;;27.35;13.45;;;11.20;99.90;;;;;;5058834;28;20144;-62
2023/01/02 02:24:02;;;;;;;28.48;12.55;;;11.20;99.90;;;;;;5057331;28;20084;-66
2023/01/02 02:26:46;;;;;;;28.00;12.93;;;11.20;99.90;;;;;;5056983;28;20547;-64
2023/01/02 02:29:53;;;;;;;23.45;11.13;;;11.20;99.90;;;;;;5046342;28;20041;-65
2023/01/02 02:32:23;;;;;;;28.45;12.10;;;11.20;99.90;;;;;;5048840;28;20049;-69
2023/01/02 02:34:52;;;;;;;22.98;12.13;;;11.20;99.90;;;;;;5056407;28;20073;-63
2023/01/02 02:37:23;;;;;;;26.13;12.32;;;11.20;99.90;;;;;;5054911;28;20088;-66
2023/01/02 02:39:54;;;;;;;23.38;11.45;;;11.20;99.90;;;;;;5054124;28;20088;-67
2023/01/02 02:42:25;;;;;;;30.05;11.93;;;11.20;99.90;;;;;;5044225;28;20111;-65
2023/01/02 02:44:56;;;;;;;26.50;10.95;;;11.20;99.90;;;;;;5048652;28;20092;-65
2023/01/02 02:47:26;;;;;;;;;;;11.20;99.90;;;;;;5051214;28;20045;-66
2023/01/02 02:49:56;;;;;;;34.40;12.38;;;11.20;99.90;;;;;;5050485;28;19967;-58
2023/01/02 02:52:26;;;;;;;24.38;11.60;;;11.20;99.90;;;;;;5044008;28;20049;-65
2023/01/02 02:54:55;;;;;;;28.40;12.23;;;11.30;99.90;;;;;;5054101;28;20056;-67
2023/01/02 02:57:22;;;;;;;23.52;11.05;;;11.20;99.90;;;;;;5051212;28;20049;-66
2023/01/02 02:59:49;;;;;;;20.27;10.75;;;11.20;99.90;;;;;;5051466;28;20053;-55
2023/01/02 03:02:17;;;;;;;23.15;11.00;;;11.20;99.90;;;;;;5050529;28;20541;-65
2023/01/02 03:04:44;;;;;;;24.77;11.25;;;11.20;99.90;;;;;;5052115;28;20473;-66
2023/01/02 03:07:16;;;;;;;22.73;10.80;;;11.30;99.90;;;;;;5051965;28;20110;-65
2023/01/02 03:09:47;;;;;;;23.55;10.75;;;11.30;99.90;;;;;;5056593;28;20140;-62
2023/01/02 03:12:19;;;;;;;28.55;10.73;;;11.30;99.90;;;;;;5060946;28;20089;-69
2023/01/02 03:14:52;;;;;;;23.85;11.18;;;11.30;99.90;;;;;;5054551;28;20110;-60
2023/01/02 03:17:25;;;;;;;21.98;10.35;;;11.30;99.90;;;;;;5055928;28;20091;-70
2023/01/02 03:19:54;;;;;;;22.38;10.68;;;11.30;99.90;;;;;;5043928;28;20542;-67
2023/01/02 03:22:23;;;;;;;19.38;11.07;;;11.30;99.90;;;;;;5057330;28;20053;-65
2023/01/02 03:24:51;;;;;;;26.95;11.10;;;11.40;99.90;;;;;;5056594;28;20451;-69
2023/01/02 03:27:20;;;;;;;26.33;10.70;;;11.40;99.90;;;;;;5056035;28;20060;-66
2023/01/02 03:29:48;;;;;;;26.70;11.50;;;11.40;99.90;;;;;;5057138;28;20404;-69
2023/01/02 03:32:17;;;;;;;23.33;10.45;;;11.30;99.90;;;;;;5054473;28;20077;-66
2023/01/02 03:34:45;;;;;;;23.88;10.88;;;11.40;99.90;;;;;;5054518;28;20144;-64
2023/01/02 03:37:14;;;;;;;17.83;10.10;;;11.40;99.90;;;;;;5069853;28;20089;-64
2023/01/02 03:39:43;;;;;;;21.20;10.50;;;11.30;99.90;;;;;;5056761;28;20114;-66
2023/01/02 03:42:11;;;;;;;26.23;10.52;;;11.40;99.90;;;;;;5050463;28;20087;-66
2023/01/02 03:44:40;;;;;;;21.60;11.43;;;11.40;99.90;;;;;;5051861;28;20044;-73
2023/01/02 03:47:12;;;;;;;24.00;11.07;;;11.40;99.90;;;;;;5058157;28;20079;-66
2023/01/02 03:49:40;;;;;;;19.40;10.48;;;11.40;99.90;;;;;;5059259;28;20056;-62
2023/01/02 03:52:08;;;;;;;23.05;10.88;;;11.40;99.90;;;;;;5057529;28;20094;-66
2023/01/02 03:54:35;;;;;;;23.52;10.80;;;11.40;99.90;;;;;;5057479;28;20045;-66
2023/01/02 03:57:04;;;;;;;23.33;10.73;;;11.40;99.90;;;;;;5057647;28;20052;-65
2023/01/02 03:59:34;;;;;;;20.55;10.95;;;11.40;99.90;;;;;;5057003;28;20072;-66
2023/01/02 04:02:02;;;;;;;22.15;11.38;;;11.40;99.90;;;;;;5055741;28;20049;-55
2023/01/02 04:04:32;;;;;;;22.25;11.68;;;11.40;99.90;;;;;;5053348;28;20064;-65
2023/01/02 04:07:00;;;;;;;25.55;10.90;;;11.40;99.90;;;;;;5052671;28;20112;-67
2023/01/02 04:09:29;;;;;;;29.70;11.02;;;11.40;99.90;;;;;;5057058;28;20099;-61
2023/01/02 04:11:58;;;;;;;26.20;11.43;;;11.40;99.90;;;;;;5059614;28;20095;-68
2023/01/02 04:14:28;;;;;;;26.65;11.27;;;11.40;99.90;;;;;;5058042;28;20045;-67
2023/01/02 04:16:55;;;;;;;23.05;10.85;;;11.40;99.90;;;;;;5058553;28;20049;-62
2023/01/02 04:19:23;;;;;;;23.73;11.25;;;11.50;99.90;;;;;;5054707;28;20092;-66
2023/01/02 04:21:50;;;;;;;22.73;10.55;;;11.40;99.90;;;;;;5056796;28;20092;-62
2023/01/02 04:24:18;;;;;;;27.83;11.80;;;11.40;99.90;;;;;;5054541;28;20053;-67
2023/01/02 04:26:48;;;;;;;19.50;10.98;;;11.40;99.90;;;;;;5057037;28;20087;-68
2023/01/02 04:29:15;;;;;;;21.83;10.35;;;11.50;99.90;;;;;;5054749;28;20049;-66
2023/01/02 04:31:44;;;;;;;21.88;10.48;;;11.50;99.90;;;;;;5052025;28;20511;-66
2023/01/02 04:34:11;;;;;;;25.92;10.90;;;11.50;99.90;;;;;;5051131;28;20131;-67
2023/01/02 04:36:38;;;;;;;22.38;10.02;;;11.50;99.90;;;;;;5052481;28;20076;-65
2023/01/02 04:39:05;;;;;;;23.08;11.15;;;11.50;99.90;;;;;;5053622;28;20053;-67
2023/01/02 04:41:32;;;;;;;31.92;10.80;;;11.50;99.90;;;;;;5056389;28;20087;-65
2023/01/02 04:44:00;;;;;;;21.63;11.18;;;11.50;99.90;;;;;;5058150;28;20056;-67
2023/01/02 04:46:27;;;;;;;27.75;11.63;;;11.50;99.90;;;;;;5057147;28;20540;-67
2023/01/02 04:48:54;;;;;;;30.83;11.10;;;11.60;99.90;;;;;;5055788;28;20049;-62
2023/01/02 04:51:21;;;;;;;22.42;9.90;;;11.60;99.90;;;;;;5052035;28;20081;-61
2023/01/02 04:53:48;;;;;;;23.27;9.00;;;11.60;99.90;;;;;;5048199;28;20578;-73
2023/01/02 04:56:15;;;;;;;21.65;10.85;;;11.60;99.90;;;;;;5047532;28;20132;-71
2023/01/02 04:58:42;;;;;;;22.05;10.48;;;11.60;99.90;;;;;;5057677;28;20049;-61
2023/01/02 05:01:10;;;;;;;21.02;10.55;;;11.60;99.90;;;;;;5052615;28;20486;-66
2023/01/02 05:03:39;;;;;;;23.33;10.07;;;11.60;99.90;;;;;;5054358;28;20136;-63
2023/01/02 05:06:06;;;;;;;23.23;10.50;;;11.60;99.90;;;;;;5054193;28;20049;-66
2023/01/02 05:08:33;;;;;;;24.65;10.23;;;11.60;99.90;;;;;;5053764;28;20045;-66
2023/01/02 05:11:05;;;;;;;22.05;9.93;;;11.60;99.90;;;;;;5058135;28;20566;-64
2023/01/02 05:13:32;;;;;;;21.40;10.43;;;11.70;99.90;;;;;;5060017;28;20069;-63
2023/01/02 05:15:58;;;;;;;20.90;10.23;;;11.60;99.90;;;;;;5051074;28;20053;-65
2023/01/02 05:18:27;;;;;;;19.15;9.82;;;11.70;99.90;;;;;;5060839;28;20400;-70
2023/01/02 05:20:59;;;;;;;24.00;10.25;;;11.70;99.90;;;;;;5058970;28;20045;-68
2023/01/02 05:26:10;;;;;;;22.48;9.77;;;11.70;99.90;;;;;;5060772;28;20056;-64
2023/01/02 05:28:37;;;;;;;17.42;9.75;;;11.70;99.90;;;;;;5059990;28;20044;-66
2023/01/02 05:31:04;;;;;;;23.65;10.10;;;11.70;99.90;;;;;;5058377;28;20085;-65
2023/01/02 05:33:32;;;;;;;23.20;10.35;;;11.70;99.90;;;;;;5058588;28;20100;-66
2023/01/02 05:35:59;;;;;;;21.67;9.50;;;11.70;99.90;;;;;;5058835;28;20469;-64
2023/01/02 05:38:26;;;;;;;21.85;9.70;;;11.80;99.90;;;;;;5061593;28;20048;-64
2023/01/02 05:40:59;;;;;;;19.55;9.27;;;11.80;99.90;;;;;;5060085;28;20057;-62
2023/01/02 05:43:26;;;;;;;23.58;10.30;;;11.80;99.90;;;;;;5049126;28;20041;-66
2023/01/02 05:45:53;;;;;;;20.65;9.05;;;11.80;99.90;;;;;;5057453;28;21225;-62
2023/01/02 05:48:20;;;;;;;20.25;9.27;;;11.80;99.90;;;;;;5059898;28;20084;-68
2023/01/02 05:50:48;;;;;;;19.13;9.57;;;11.80;99.90;;;;;;5056494;28;20356;-67
2023/01/02 05:53:15;;;;;;;20.67;10.00;;;11.90;99.90;;;;;;5056912;28;20048;-60
2023/01/02 05:55:41;;;;;;;22.95;9.88;;;11.90;99.90;;;;;;5059657;28;20084;-65
2023/01/02 05:58:08;;;;;;;24.98;9.45;;;12.00;99.90;;;;;;5060615;28;20052;-67
2023/01/02 06:00:35;;;;;;;22.92;9.10;;;11.90;99.90;;;;;;5058473;28;20469;-62
2023/01/02 06:03:02;;;;;;;18.52;8.85;;;11.90;99.90;;;;;;5060581;28;20045;-70
2023/01/02 06:05:29;;;;;;;20.23;8.68;;;11.90;99.90;;;;;;5061742;28;20215;-66
2023/01/02 06:07:57;;;;;;;27.13;9.45;;;11.90;99.90;;;;;;5061034;28;20115;-66
2023/01/02 06:10:23;;;;;;;23.48;9.18;;;11.90;99.90;;;;;;5059392;28;20089;-64
2023/01/02 06:12:50;;;;;;;23.77;9.38;;;11.90;99.90;;;;;;5059392;28;20048;-67
2023/01/02 06:15:17;;;;;;;24.35;9.10;;;11.90;99.90;;;;;;5056387;28;20087;-58
2023/01/02 06:17:44;;;;;;;20.25;8.48;;;11.90;99.90;;;;;;5053441;28;20533;-57
2023/01/02 06:20:11;;;;;;;16.52;8.80;;;11.90;99.90;;;;;;5054452;28;20130;-57
2023/01/02 06:22:38;;;;;;;18.92;8.68;;;11.90;99.90;;;;;;5054094;28;20095;-58
2023/01/02 06:25:07;;;;;;;18.13;9.13;;;11.90;99.90;;;;;;5053309;28;20183;-61
2023/01/02 06:27:34;;;;;;;24.35;9.40;;;11.90;99.90;;;;;;5058151;28;20075;-63
2023/01/02 06:30:01;;;;;;;20.65;9.10;;;11.90;99.90;;;;;;5056283;28;20099;-61
2023/01/02 06:32:27;;;;;;;21.27;8.93;;;11.90;99.90;;;;;;5051749;28;20080;-56
2023/01/02 06:34:54;;;;;;;24.77;9.63;;;12.00;99.90;;;;;;5052939;28;20077;-61
2023/01/02 06:37:21;;;;;;;24.90;10.05;;;12.00;99.90;;;;;;5057914;28;20053;-68
2023/01/02 06:39:48;;;;;;;24.42;9.57;;;12.00;99.90;;;;;;5059774;28;20049;-62
2023/01/02 06:42:16;;;;;;;19.77;9.60;;;12.00;99.90;;;;;;5056307;28;20116;-63
2023/01/02 06:44:43;;;;;;;19.48;9.45;;;12.00;99.90;;;;;;5058367;28;20091;-63
2023/01/02 06:47:09;;;;;;;18.65;9.40;;;12.00;99.90;;;;;;5056452;28;20088;-61
2023/01/02 06:49:36;;;;;;;21.80;9.20;;;12.00;99.90;;;;;;5056591;28;20063;-62
2023/01/02 06:52:03;;;;;;;21.08;9.00;;;12.00;99.90;;;;;;5055625;28;20102;-56
2023/01/02 06:54:30;;;;;;;20.90;9.52;;;12.00;99.90;;;;;;5053399;28;20468;-50
2023/01/02 06:56:57;;;;;;;17.27;9.20;;;12.00;99.90;;;;;;5052931;28;20145;-57
2023/01/02 06:59:25;;;;;;;18.80;8.52;;;12.00;99.90;;;;;;5055005;28;20048;-62
2023/01/02 07:01:52;;;;;;;13.20;7.55;;;12.00;99.90;;;;;;5056452;28;20056;-65
2023/01/02 07:04:18;;;;;;;13.05;7.70;;;12.00;99.90;;;;;;5055475;28;20408;-61
2023/01/02 07:06:45;;;;;;;9.73;6.00;;;12.00;99.90;;;;;;5052481;28;20049;-62
2023/01/02 07:09:12;;;;;;;8.40;6.57;;;12.00;99.90;;;;;;5051574;28;20096;-60
2023/01/02 07:11:39;;;;;;;6.78;5.57;;;11.90;99.90;;;;;;5053398;28;20053;-58
2023/01/02 07:14:06;;;;;;;9.15;4.63;;;11.90;99.90;;;;;;5050636;28;20084;-59
2023/01/02 07:16:34;;;;;;;5.47;3.42;;;11.80;99.90;;;;;;5052007;28;20488;-57
2023/01/02 07:19:01;;;;;;;4.07;3.30;;;11.70;99.90;;;;;;5050486;28;20079;-57
2023/01/02 07:21:27;;;;;;;4.63;2.40;;;11.70;99.90;;;;;;5054731;28;20136;-61
2023/01/02 07:23:54;;;;;;;4.82;2.42;;;11.60;99.90;;;;;;5055260;28;20091;-62
2023/01/02 07:26:21;;;;;;;2.47;1.60;;;11.50;99.90;;;;;;5056714;28;20107;-61
2023/01/02 07:28:48;;;;;;;2.72;1.48;;;11.40;99.90;;;;;;5052205;28;20095;-57
2023/01/02 07:31:15;;;;;;;1.70;1.60;;;11.30;99.90;;;;;;5052930;28;20536;-61
2023/01/02 07:33:44;;;;;;;3.22;2.25;;;11.20;99.90;;;;;;5054555;28;20087;-61
2023/01/02 07:36:11;;;;;;;3.30;2.70;;;11.10;99.90;;;;;;5053241;28;20053;-62
2023/01/02 07:38:38;;;;;;;4.18;3.55;;;11.10;99.90;;;;;;5054083;28;20088;-60
2023/01/02 07:41:05;;;;;;;6.20;4.78;;;11.00;99.90;;;;;;5051761;28;20057;-61
2023/01/02 07:43:32;;;;;;;5.50;4.97;;;10.90;99.90;;;;;;5037476;28;20079;-63
2023/01/02 07:46:02;;;;;;;7.82;5.72;;;10.80;99.90;;;;;;5051676;28;20061;-46
2023/01/02 07:48:29;;;;;;;6.38;5.75;;;10.80;99.90;;;;;;5051751;28;20053;-61
2023/01/02 07:51:01;;;;;;;6.82;5.95;;;10.70;99.90;;;;;;5051732;28;20562;-63
2023/01/02 07:53:28;;;;;;;9.25;6.97;;;10.70;99.90;;;;;;5055748;28;20064;-59
2023/01/02 07:55:54;;;;;;;7.90;6.05;;;10.60;99.90;;;;;;5054184;28;20049;-60
2023/01/02 07:58:21;;;;;;;8.43;6.13;;;10.50;99.90;;;;;;5054855;28;20103;-59
2023/01/02 08:00:48;;;;;;;9.50;6.13;;;10.50;99.90;;;;;;5054441;28;20053;-53
2023/01/02 08:03:15;;;;;;;9.23;6.50;;;10.50;99.90;;;;;;5052952;28;20079;-61
2023/01/02 08:05:41;;;;;;;7.75;6.03;;;10.40;99.90;;;;;;5052204;28;20556;-61
2023/01/02 08:08:10;;;;;;;7.93;4.72;;;10.40;99.90;;;;;;5050643;28;20056;-63
2023/01/02 08:10:37;;;;;;;5.65;3.75;;;10.30;99.90;;;;;;5048831;28;20136;-61
2023/01/02 08:13:04;;;;;;;7.03;3.80;;;10.30;99.90;;;;;;5052065;28;20064;-63
2023/01/02 08:15:30;;;;;;;6.28;3.30;;;10.20;99.90;;;;;;5052475;28;20080;-62
2023/01/02 08:17:57;;;;;;;4.80;2.50;;;10.20;99.90;;;;;;5054742;28;20048;-67
2023/01/02 08:20:24;;;;;;;4.68;2.30;;;10.10;99.90;;;;;;5053551;28;20081;-55
2023/01/02 08:22:51;;;;;;;3.85;1.80;;;10.00;99.90;;;;;;5055835;28;20076;-63
2023/01/02 08:25:19;;;;;;;3.53;1.80;;;9.90;99.90;;;;;;5055065;28;20525;-63
2023/01/02 08:27:46;;;;;;;3.35;2.05;;;9.80;99.90;;;;;;5055298;28;20089;-54
2023/01/02 08:30:13;;;;;;;2.97;1.70;;;9.80;99.90;;;;;;5056083;28;20057;-66
2023/01/02 08:32:41;;;;;;;6.35;1.70;;;9.80;99.90;;;;;;5048101;28;20072;-41
2023/01/02 08:35:09;;;;;;;3.28;1.60;;;9.70;99.90;;;;;;5053096;28;20056;-65
2023/01/02 08:37:35;;;;;;;3.92;1.40;;;9.70;99.90;;;;;;5053825;28;20088;-66
2023/01/02 08:40:03;;;;;;;3.53;1.40;;;9.70;99.90;;;;;;5054362;28;20072;-61
2023/01/02 08:42:31;;;;;;;1.88;1.10;;;9.60;99.90;;;;;;5046796;28;20049;-66
2023/01/02 08:44:58;;;;;;;3.05;1.30;;;9.60;99.90;;;;;;5056424;28;20081;-49
2023/01/02 08:47:25;;;;;;;2.28;1.30;;;9.50;99.90;;;;;;5055612;28;20095;-65
2023/01/02 08:49:51;;;;;;;3.05;1.50;;;9.50;99.90;;;;;;5053381;28;20056;-66
2023/01/02 08:52:18;;;;;;;3.15;1.63;;;9.50;99.90;;;;;;5056666;28;20489;-63
2023/01/02 08:54:45;;;;;;;4.18;1.92;;;9.40;99.90;;;;;;5053131;28;20083;-65
2023/01/02 08:57:12;;;;;;;3.85;2.10;;;9.40;99.90;;;;;;5052743;28;20083;-60
2023/01/02 08:59:40;;;;;;;3.70;1.80;;;9.40;99.90;;;;;;5053425;28;20140;-62
2023/01/02 09:02:07;;;;;;;3.05;1.83;;;9.40;99.90;;;;;;5052962;28;20049;-62
2023/01/02 09:04:33;;;;;;;3.08;1.83;;;9.40;99.90;;;;;;5052755;28;20085;-63
2023/01/02 09:07:00;;;;;;;3.20;1.98;;;9.40;99.90;;;;;;5053408;28;20645;-63
2023/01/02 09:09:27;;;;;;;3.03;1.98;;;9.40;99.90;;;;;;5050155;28;20080;-57
2023/01/02 09:11:54;;;;;;;3.83;2.60;;;9.40;99.90;;;;;;5052920;28;20107;-59
2023/01/02 09:14:21;;;;;;;4.13;2.13;;;9.40;99.90;;;;;;5050960;28;20122;-62
2023/01/02 09:16:49;;;;;;;4.72;2.63;;;9.40;99.90;;;;;;5054044;28;20102;-53
2023/01/02 09:19:16;;;;;;;3.85;2.40;;;9.40;99.90;;;;;;5054003;28;20110;-62
2023/01/02 09:21:43;;;;;;;3.28;2.38;;;9.40;99.90;;;;;;5053803;28;20064;-62
2023/01/02 09:24:10;;;;;;;4.03;2.38;;;9.40;99.90;;;;;;5052544;28;20496;-62
2023/01/02 09:26:40;;;;;;;4.60;2.30;;;9.30;99.90;;;;;;5053429;28;20578;-61
2023/01/02 09:29:07;;;;;;;4.78;2.90;;;9.30;99.90;;;;;;5049064;28;20157;-62
2023/01/02 09:31:33;;;;;;;4.05;2.50;;;9.40;99.90;;;;;;5052485;28;20134;-61
2023/01/02 09:34:02;;;;;;;3.80;2.38;;;9.30;99.90;;;;;;5053138;28;20505;-59
2023/01/02 09:36:28;;;;;;;2.95;2.25;;;9.30;99.90;;;;;;5053375;28;20049;-62
2023/01/02 09:38:56;;;;;;;8.40;2.72;;;9.30;99.90;;;;;;5049059;28;20080;-62
2023/01/02 09:41:33;;;;;;;3.92;2.47;;;9.30;99.90;;;;;;5047431;28;20479;-62
2023/01/02 09:44:01;;;;;;;3.75;2.30;;;9.30;99.90;;;;;;5053023;28;20367;-59
2023/01/02 09:46:30;;;;;;;4.43;2.72;;;9.30;99.90;;;;;;5052538;28;20080;-61
2023/01/02 09:48:57;;;;;;;4.10;2.20;;;9.30;99.90;;;;;;5049714;28;20076;-54
2023/01/02 09:51:26;;;;;;;4.50;2.30;;;9.30;99.90;;;;;;5050289;28;20045;-46
2023/01/02 09:53:52;;;;;;;5.22;2.58;;;9.30;99.90;;;;;;5051528;28;20575;-61
2023/01/02 09:56:21;;;;;;;3.00;1.85;;;9.30;99.90;;;;;;5050871;28;20103;-62
2023/01/02 09:58:50;;;;;;;5.53;2.40;;;9.30;99.90;;;;;;5051439;28;20098;-61
2023/01/02 10:01:20;;;;;;;5.68;2.60;;;9.30;99.90;;;;;;5050943;28;20091;-60
2023/01/02 10:03:50;;;;;;;4.07;2.03;;;9.30;99.90;;;;;;5051617;28;20091;-60
2023/01/02 10:06:17;;;;;;;4.05;2.17;;;9.30;99.90;;;;;;5049528;28;20521;-61
2023/01/02 10:08:50;;;;;;;4.68;2.20;;;9.30;99.90;;;;;;5052691;28;20080;-59
2023/01/02 10:11:29;;;;;;;4.45;2.20;;;9.30;99.90;;;;;;5050846;28;20056;-62
2023/01/02 10:13:57;;;;;;;4.70;2.30;;;9.30;99.90;;;;;;5051139;28;20479;-61
2023/01/02 10:16:26;;;;;;;4.57;2.70;;;9.30;99.90;;;;;;5048848;28;20146;-51
2023/01/02 10:18:53;;;;;;;5.85;2.85;;;9.40;99.90;;;;;;5051334;28;20076;-63
2023/01/02 10:21:22;;;;;;;5.93;2.50;;;9.30;99.90;;;;;;5049981;28;20087;-63
2023/01/02 10:23:51;;;;;;;5.30;2.60;;;9.30;99.90;;;;;;5047772;28;20122;-63
2023/01/02 10:26:18;;;;;;;6.40;2.78;;;9.30;99.90;;;;;;5052882;28;20489;-63
2023/01/02 10:28:49;;;;;;;4.30;2.33;;;9.40;99.90;;;;;;5050612;28;20045;-56
2023/01/02 10:31:17;;;;;;;5.95;2.65;;;9.40;99.90;;;;;;5052391;28;20084;-62
2023/01/02 10:33:45;;;;;;;6.82;2.85;;;9.40;99.90;;;;;;5051130;28;20560;-64
2023/01/02 10:36:20;;;;;;;5.75;2.60;;;9.40;99.90;;;;;;5052289;28;20081;-59
2023/01/02 10:38:47;;;;;;;4.28;2.10;;;9.40;99.90;;;;;;5051532;28;20091;-62
2023/01/02 10:41:15;;;;;;;5.82;2.80;;;9.40;99.90;;;;;;5051546;28;20126;-56
2023/01/02 10:43:42;;;;;;;7.57;2.80;;;9.40;99.90;;;;;;5044296;28;20490;-62
2023/01/02 10:46:09;;;;;;;8.68;2.88;;;9.40;99.90;;;;;;5049934;28;20094;-56
2023/01/02 10:48:35;;;;;;;9.13;3.75;;;9.40;99.90;;;;;;5051383;28;20496;-61
2023/01/02 10:51:03;;;;;;;8.75;3.15;;;9.40;99.90;;;;;;5051590;28;20088;-51
2023/01/02 10:53:32;;;;;;;6.72;3.25;;;9.40;99.90;;;;;;5050918;28;20495;-62
2023/01/02 10:56:01;;;;;;;6.88;3.00;;;9.40;99.90;;;;;;5051754;28;20055;-57
2023/01/02 10:58:30;;;;;;;7.93;3.30;;;9.40;99.90;;;;;;5049765;28;20048;-55
2023/01/02 11:01:04;;;;;;;6.68;2.92;;;9.40;99.90;;;;;;5051684;28;20137;-61
2023/01/02 11:03:31;;;;;;;7.88;3.30;;;9.50;99.90;;;;;;5050994;28;20096;-50
2023/01/02 11:05:58;;;;;;;5.38;3.13;;;9.50;99.90;;;;;;5048737;28;20436;-59
2023/01/02 11:08:35;;;;;;;7.93;3.28;;;9.50;99.90;;;;;;5051146;28;20053;-54
2023/01/02 11:11:02;;;;;;;11.10;3.42;;;9.60;99.90;;;;;;5051103;28;20057;-62
2023/01/02 11:13:35;;;;;;;8.55;3.20;;;9.60;99.90;;;;;;5047758;28;20049;-62
2023/01/02 11:16:03;;;;;;;9.18;3.25;;;9.60;99.90;;;;;;5040260;28;20140;-61
2023/01/02 11:18:30;;;;;;;6.55;3.22;;;9.60;99.90;;;;;;5051748;28;20178;-61
2023/01/02 11:21:02;;;;;;;7.90;3.22;;;9.60;99.90;;;;;;5049008;28;20134;-61
2023/01/02 11:23:30;;;;;;;7.00;3.00;;;9.60;99.90;;;;;;5050048;28;20049;-53
2023/01/02 11:25:57;;;;;;;6.13;3.03;;;9.60;99.90;;;;;;5049188;28;20604;-60
2023/01/02 11:28:25;;;;;;;6.68;3.17;;;9.60;99.90;;;;;;5049842;28;20080;-57
2023/01/02 11:30:54;;;;;;;8.70;3.22;;;9.60;99.90;;;;;;5050328;28;20092;-60
2023/01/02 11:33:26;;;;;;;8.70;3.05;;;9.60;99.90;;;;;;5048742;28;20049;-55
2023/01/02 11:35:54;;;;;;;5.15;2.60;;;9.60;99.90;;;;;;5049136;28;20055;-57
2023/01/02 11:38:22;;;;;;;8.60;2.53;;;9.60;99.90;;;;;;5048780;28;21569;-61
2023/01/02 11:40:54;;;;;;;6.03;2.63;;;9.60;99.90;;;;;;5047262;28;20048;-60
2023/01/02 11:46:20;;;;;;;9.75;2.90;;;9.60;99.90;;;;;;5045359;28;20076;-62
2023/01/02 11:48:47;;;;;;;8.75;2.67;;;9.60;99.90;;;;;;5049302;28;20088;-58
2023/01/02 11:51:15;;;;;;;8.05;2.90;;;9.60;99.90;;;;;;5046770;28;20118;-62
2023/01/02 11:53:42;;;;;;;11.82;2.60;;;9.60;99.90;;;;;;5045191;28;20556;-61
2023/01/02 11:56:10;;;;;;;12.88;2.78;;;9.50;99.90;;;;;;5040899;28;20140;-57
2023/01/02 11:58:41;;;;;;;11.77;2.97;;;9.50;99.90;;;;;;5049283;28;20041;-61
2023/01/02 12:01:13;;;;;;;9.35;2.95;;;9.40;99.90;;;;;;5047230;28;20139;-58
2023/01/02 12:03:40;;;;;;;8.45;2.25;;;9.60;99.90;;;;;;5042545;28;20517;-57
2023/01/02 12:06:14;;;;;;;8.82;1.80;;;9.60;99.90;;;;;;5048524;28;20087;-61
2023/01/02 12:08:44;;;;;;;9.75;2.13;;;9.60;99.90;;;;;;5049777;28;20497;-61
2023/01/02 12:11:17;;;;;;;6.43;2.00;;;9.60;99.90;;;;;;5051751;28;20480;-61
2023/01/02 12:13:57;;;;;;;14.23;2.50;;;9.60;99.90;;;;;;5048197;28;20311;-61
2023/01/02 12:16:32;;;;;;;12.85;2.50;;;9.60;99.90;;;;;;5040086;28;20572;-59
2023/01/02 12:19:35;;;;;;;10.40;2.20;;;9.70;99.90;;;;;;5042121;28;20509;-61
2023/01/02 12:22:09;;;;;;;7.15;2.17;;;9.70;99.90;;;;;;5052681;28;20562;-61
2023/01/02 12:24:55;;;;;;;9.45;2.30;;;9.70;99.90;;;;;;5051873;28;20144;-58
2023/01/02 12:27:25;;;;;;;7.95;2.00;;;9.70;99.90;;;;;;5045572;28;20060;-59
2023/01/02 12:30:00;;;;;;;9.52;1.98;;;9.60;99.90;;;;;;5047295;28;20092;-61
2023/01/02 12:32:49;;;;;;;10.65;2.58;;;9.60;99.90;;;;;;5048299;28;20045;-61
2023/01/02 12:35:23;;;;;;;8.82;1.60;;;9.60;99.90;;;;;;5046852;28;20131;-61
2023/01/02 12:37:53;;;;;;;13.77;2.80;;;9.70;99.90;;;;;;5051151;28;20568;-61
2023/01/02 12:40:35;;;;;;;13.52;3.30;;;9.70;99.90;;;;;;5049564;28;20045;-61
2023/01/02 12:43:30;;;;;;;13.00;2.50;;;9.70;99.90;;;;;;5046864;28;20488;-61
2023/01/02 12:46:02;;;;;;;15.68;2.63;;;9.70;99.90;;;;;;5043240;28;20127;-53
2023/01/02 12:48:38;;;;;;;23.23;2.45;;;9.70;99.90;;;;;;5048625;28;20041;-60
2023/01/02 12:51:15;;;;;;;13.77;2.08;;;9.70;99.90;;;;;;5044622;28;20044;-61
2023/01/02 12:53:59;;;;;;;18.67;2.08;;;9.70;99.90;;;;;;5047906;28;20053;-58